createdAt,value
2023-04-04T00:00:24.672Z,30.60
2023-04-04T00:02:52.114Z,30.70
2023-04-04T00:05:19.357Z,30.70
2023-04-04T00:07:47.706Z,30.70
2023-04-04T00:10:15.761Z,30.70
2023-04-04T00:12:44.135Z,30.50
2023-04-04T00:15:11.972Z,30.60
2023-04-04T00:17:39.271Z,30.60
2023-04-04T00:20:07.745Z,30.60
2023-04-04T00:22:34.825Z,30.60
2023-04-04T00:25:01.920Z,30.40
2023-04-04T00:27:29.178Z,30.30
2023-04-04T00:29:56.248Z,30.40
2023-04-04T00:32:23.474Z,30.20
2023-04-04T00:34:54.271Z,30.30
2023-04-04T00:37:21.947Z,30.40
2023-04-04T00:39:50.373Z,30.40
2023-04-04T00:42:18.205Z,30.40
2023-04-04T00:44:45.626Z,30.60
2023-04-04T00:47:12.761Z,30.60
2023-04-04T00:49:40.304Z,30.60
2023-04-04T00:52:07.932Z,30.60
2023-04-04T00:54:35.891Z,30.40
2023-04-04T00:57:05.538Z,30.50
2023-04-04T00:59:33.192Z,30.60
2023-04-04T01:02:00.986Z,30.60
2023-04-04T01:04:29.618Z,30.50
2023-04-04T01:06:57.493Z,30.40
2023-04-04T01:09:26.232Z,30.40
2023-04-04T01:11:55.052Z,30.50
2023-04-04T01:14:22.734Z,30.50
2023-04-04T01:16:53.420Z,30.60
2023-04-04T01:19:30.701Z,30.60
2023-04-04T01:22:01.897Z,30.60
2023-04-04T01:24:33.146Z,30.60
2023-04-04T01:27:00.883Z,30.60
2023-04-04T01:29:28.036Z,30.60
2023-04-04T01:32:08.778Z,30.60
2023-04-04T01:35:02.050Z,30.60
2023-04-04T01:37:42.159Z,30.60
2023-04-04T01:40:22.564Z,30.50
2023-04-04T01:42:51.967Z,30.50
2023-04-04T01:45:23.096Z,30.40
2023-04-04T01:47:50.328Z,30.30
2023-04-04T01:50:17.804Z,30.30
2023-04-04T01:52:45.018Z,30.10
2023-04-04T01:55:12.626Z,30.00
2023-04-04T01:57:39.917Z,29.90
2023-04-04T02:00:07.761Z,29.90
2023-04-04T02:02:34.810Z,30.00
2023-04-04T02:05:02.069Z,29.90
2023-04-04T02:07:29.368Z,29.80
2023-04-04T02:09:56.642Z,30.00
2023-04-04T02:12:24.142Z,30.00
2023-04-04T02:14:51.111Z,30.10
2023-04-04T02:17:18.332Z,30.10
2023-04-04T02:19:45.447Z,30.10
2023-04-04T02:22:12.990Z,30.00
2023-04-04T02:24:41.375Z,30.00
2023-04-04T02:27:08.622Z,30.10
2023-04-04T02:29:35.628Z,30.10
2023-04-04T02:32:03.376Z,30.00
2023-04-04T02:34:30.348Z,30.20
2023-04-04T02:36:57.557Z,30.10
2023-04-04T02:39:24.867Z,30.00
2023-04-04T02:41:52.049Z,30.10
2023-04-04T02:44:19.145Z,30.00
2023-04-04T02:46:46.194Z,29.80
2023-04-04T02:49:13.462Z,29.90
2023-04-04T02:51:41.662Z,29.90
2023-04-04T02:54:10.228Z,29.90
2023-04-04T02:56:38.681Z,29.90
2023-04-04T02:59:05.981Z,29.90
2023-04-04T03:01:33.402Z,29.90
2023-04-04T03:04:00.587Z,30.00
2023-04-04T03:06:31.335Z,30.10
2023-04-04T03:08:58.536Z,29.90
2023-04-04T03:11:25.601Z,30.00
2023-04-04T03:13:52.630Z,30.00
2023-04-04T03:16:20.389Z,30.10
2023-04-04T03:18:48.172Z,30.20
2023-04-04T03:21:15.534Z,30.20
2023-04-04T03:23:43.154Z,30.10
2023-04-04T03:26:14.614Z,30.10
2023-04-04T03:28:41.756Z,30.20
2023-04-04T03:31:08.861Z,30.10
2023-04-04T03:33:39.928Z,30.00
2023-04-04T03:36:11.031Z,30.00
2023-04-04T03:38:38.422Z,29.90
2023-04-04T03:41:07.386Z,29.80
2023-04-04T03:43:34.986Z,29.90
2023-04-04T03:46:03.520Z,29.80
2023-04-04T03:48:31.886Z,29.50
2023-04-04T03:50:59.033Z,29.60
2023-04-04T03:53:28.838Z,29.40
2023-04-04T03:55:57.106Z,29.40
2023-04-04T03:58:24.707Z,29.10
2023-04-04T04:00:51.692Z,29.40
2023-04-04T04:03:18.938Z,29.20
2023-04-04T04:05:46.075Z,29.20
2023-04-04T04:08:13.433Z,29.40
2023-04-04T04:10:41.087Z,29.30
2023-04-04T04:13:09.616Z,29.40
2023-04-04T04:15:36.637Z,29.40
2023-04-04T04:18:03.875Z,29.40
2023-04-04T04:20:31.024Z,29.40
2023-04-04T04:22:58.472Z,29.50
2023-04-04T04:25:25.740Z,29.40
2023-04-04T04:27:56.994Z,29.50
2023-04-04T04:30:24.041Z,29.40
2023-04-04T04:32:51.262Z,29.40
2023-04-04T04:35:18.465Z,29.50
2023-04-04T04:37:45.647Z,29.20
2023-04-04T04:40:14.363Z,29.50
2023-04-04T04:42:48.742Z,29.70
2023-04-04T04:45:15.954Z,30.00
2023-04-04T04:47:43.354Z,30.30
2023-04-04T04:50:10.886Z,30.40
2023-04-04T04:52:38.746Z,30.40
2023-04-04T04:55:06.498Z,30.40
2023-04-04T04:57:34.512Z,30.50
2023-04-04T05:00:04.373Z,30.30
2023-04-04T05:02:31.611Z,30.30
2023-04-04T05:05:00.156Z,30.30
2023-04-04T05:07:27.160Z,30.40
2023-04-04T05:09:54.105Z,30.30
2023-04-04T05:12:21.477Z,30.40
2023-04-04T05:14:48.849Z,30.10
2023-04-04T05:17:18.694Z,30.30
2023-04-04T05:19:46.489Z,30.50
2023-04-04T05:22:13.957Z,30.50
2023-04-04T05:24:42.956Z,30.60
2023-04-04T05:27:10.245Z,30.70
2023-04-04T05:29:37.224Z,30.70
2023-04-04T05:32:04.279Z,30.70
2023-04-04T05:34:31.946Z,30.70
2023-04-04T05:37:00.008Z,30.90
2023-04-04T05:39:26.995Z,30.80
2023-04-04T05:41:54.041Z,30.90
2023-04-04T05:44:20.999Z,31.00
2023-04-04T05:46:48.006Z,31.10
2023-04-04T05:49:15.185Z,31.20
2023-04-04T05:51:42.182Z,31.20
2023-04-04T05:54:09.225Z,31.30
2023-04-04T05:56:36.590Z,31.40
2023-04-04T05:59:03.980Z,31.70
2023-04-04T06:01:31.287Z,32.20
2023-04-04T06:04:00.707Z,32.70
2023-04-04T06:06:27.726Z,32.40
2023-04-04T06:08:54.739Z,32.40
2023-04-04T06:11:24.601Z,32.50
2023-04-04T06:13:52.968Z,32.30
2023-04-04T06:16:20.027Z,32.80
2023-04-04T06:18:47.303Z,33.00
2023-04-04T06:21:14.640Z,32.60
2023-04-04T06:23:41.785Z,31.70
2023-04-04T06:26:08.896Z,31.50
2023-04-04T06:28:36.729Z,31.10
2023-04-04T06:31:07.026Z,31.30
2023-04-04T06:33:34.233Z,31.50
2023-04-04T06:36:01.427Z,31.90
2023-04-04T06:38:29.536Z,32.50
2023-04-04T06:40:56.622Z,32.90
2023-04-04T06:43:23.890Z,32.50
2023-04-04T06:45:50.951Z,32.20
2023-04-04T06:48:18.289Z,31.80
2023-04-04T06:50:45.372Z,32.30
2023-04-04T06:53:13.020Z,33.40
2023-04-04T06:55:40.228Z,34.10
2023-04-04T06:58:07.216Z,35.20
2023-04-04T07:00:34.237Z,35.20
2023-04-04T07:03:01.748Z,35.30
2023-04-04T07:05:29.482Z,35.50
2023-04-04T07:07:57.198Z,35.40
2023-04-04T07:10:25.583Z,34.70
2023-04-04T07:12:52.613Z,33.60
2023-04-04T07:15:19.785Z,33.20
2023-04-04T07:17:46.958Z,34.20
2023-04-04T07:20:14.167Z,35.10
2023-04-04T07:22:42.563Z,35.20
2023-04-04T07:25:10.643Z,35.90
2023-04-04T07:27:37.713Z,36.10
2023-04-04T07:30:05.576Z,37.20
2023-04-04T07:32:32.749Z,38.00
2023-04-04T07:34:59.847Z,38.70
2023-04-04T07:37:26.899Z,38.50
2023-04-04T07:39:57.076Z,39.30
2023-04-04T07:42:24.282Z,39.00
2023-04-04T07:44:54.541Z,39.20
2023-04-04T07:47:21.696Z,39.40
2023-04-04T07:49:48.908Z,38.80
2023-04-04T07:52:16.072Z,39.70
2023-04-04T07:54:43.327Z,40.20
2023-04-04T07:57:10.772Z,40.50
2023-04-04T07:59:38.207Z,41.20
2023-04-04T08:02:05.316Z,41.50
2023-04-04T08:04:32.614Z,41.70
2023-04-04T08:06:59.762Z,41.00
2023-04-04T08:09:31.404Z,41.10
2023-04-04T08:11:58.635Z,41.00
2023-04-04T08:14:25.752Z,39.50
2023-04-04T08:16:52.860Z,38.80
2023-04-04T08:19:20.230Z,38.70
2023-04-04T08:21:47.449Z,39.30
2023-04-04T08:24:14.665Z,39.90
2023-04-04T08:26:43.536Z,40.40
2023-04-04T08:29:12.203Z,39.10
2023-04-04T08:31:40.727Z,38.10
2023-04-04T08:34:08.634Z,37.30
2023-04-04T08:36:36.976Z,37.00
2023-04-04T08:39:04.099Z,37.20
2023-04-04T08:41:35.076Z,37.90
2023-04-04T08:44:04.436Z,38.30
2023-04-04T08:46:31.955Z,37.90
2023-04-04T08:49:00.712Z,38.90
2023-04-04T08:51:31.900Z,38.10
2023-04-04T08:54:00.749Z,38.00
2023-04-04T08:56:29.788Z,37.70
2023-04-04T08:58:57.164Z,37.60
2023-04-04T09:01:24.497Z,36.60
2023-04-04T09:03:53.381Z,36.50
2023-04-04T09:06:21.732Z,36.30
2023-04-04T09:08:49.276Z,37.10
2023-04-04T09:11:19.949Z,37.80
2023-04-04T09:13:50.677Z,36.70
2023-04-04T09:16:18.950Z,37.30
2023-04-04T09:18:46.183Z,36.90
2023-04-04T09:21:13.687Z,38.20
2023-04-04T09:23:40.734Z,38.30
2023-04-04T09:26:07.773Z,39.20
2023-04-04T09:28:36.108Z,38.90
2023-04-04T09:31:06.066Z,38.70
2023-04-04T09:33:34.389Z,38.10
2023-04-04T09:36:10.353Z,37.20
2023-04-04T09:38:46.326Z,37.90
2023-04-04T09:41:18.156Z,38.50
2023-04-04T09:43:46.213Z,39.30
2023-04-04T09:46:13.359Z,39.90
2023-04-04T09:48:41.158Z,40.10
2023-04-04T09:51:12.213Z,39.90
2023-04-04T09:53:42.454Z,38.90
2023-04-04T09:56:12.465Z,38.80
2023-04-04T09:58:44.224Z,38.80
2023-04-04T10:01:20.180Z,37.20
2023-04-04T10:03:57.281Z,38.40
2023-04-04T10:06:24.597Z,38.50
2023-04-04T10:08:51.948Z,38.50
2023-04-04T10:11:33.831Z,38.10
2023-04-04T10:14:03.870Z,36.90
2023-04-04T10:16:38.299Z,36.50
2023-04-04T10:19:09.240Z,36.80
2023-04-04T10:21:37.640Z,37.10
2023-04-04T10:24:10.123Z,35.90
2023-04-04T10:26:37.917Z,36.30
2023-04-04T10:29:05.950Z,37.90
2023-04-04T10:31:44.600Z,39.10
2023-04-04T10:34:38.741Z,39.90
2023-04-04T10:37:13.385Z,39.50
2023-04-04T10:39:54.307Z,40.20
2023-04-04T10:42:23.738Z,40.10
2023-04-04T10:44:51.307Z,38.90
2023-04-04T10:47:24.031Z,37.40
2023-04-04T10:49:52.093Z,37.60
2023-04-04T10:52:20.975Z,37.50
2023-04-04T10:54:51.053Z,37.40
2023-04-04T10:57:18.153Z,38.40
2023-04-04T10:59:59.168Z,38.80
2023-04-04T11:02:45.124Z,38.80
2023-04-04T11:05:34.390Z,39.10
2023-04-04T11:08:09.817Z,38.60
2023-04-04T11:10:43.424Z,36.70
2023-04-04T11:13:23.742Z,36.50
2023-04-04T11:16:08.226Z,35.30
2023-04-04T11:18:42.485Z,35.30
2023-04-04T11:21:13.921Z,36.10
2023-04-04T11:23:50.301Z,35.80
2023-04-04T11:26:26.714Z,36.60
2023-04-04T11:29:04.348Z,36.60
2023-04-04T11:31:40.132Z,34.40
2023-04-04T11:34:15.471Z,34.10
2023-04-04T11:36:44.913Z,33.70
2023-04-04T11:39:31.093Z,34.60
2023-04-04T11:42:28.279Z,34.70
2023-04-04T11:44:55.299Z,34.70
2023-04-04T11:47:25.617Z,35.40
2023-04-04T11:49:56.183Z,35.80
2023-04-04T11:52:25.784Z,36.90
2023-04-04T11:54:52.994Z,38.30
2023-04-04T11:57:21.443Z,38.60
2023-04-04T11:59:52.342Z,38.10
2023-04-04T12:02:32.283Z,38.10
2023-04-04T12:04:59.868Z,37.70
2023-04-04T12:07:29.076Z,37.00
2023-04-04T12:09:57.887Z,36.80
2023-04-04T12:12:29.002Z,36.60
2023-04-04T12:15:03.467Z,37.30
2023-04-04T12:17:44.506Z,37.80
2023-04-04T12:20:11.989Z,38.90
2023-04-04T12:22:40.804Z,38.80
2023-04-04T12:25:08.406Z,38.60
2023-04-04T12:27:36.905Z,38.00
2023-04-04T12:30:05.033Z,37.40
2023-04-04T12:32:32.543Z,37.70
2023-04-04T12:35:03.980Z,38.10
2023-04-04T12:37:31.137Z,38.60
2023-04-04T12:39:58.595Z,38.00
2023-04-04T12:42:26.666Z,37.80
2023-04-04T12:44:54.797Z,37.90
2023-04-04T12:47:24.501Z,39.10
2023-04-04T12:49:56.733Z,39.90
2023-04-04T12:52:29.703Z,40.20
2023-04-04T12:55:08.191Z,40.80
2023-04-04T12:57:36.924Z,40.20
2023-04-04T13:00:07.913Z,40.90
2023-04-04T13:02:36.645Z,41.00
2023-04-04T13:05:07.536Z,40.10
2023-04-04T13:07:43.767Z,41.00
2023-04-04T13:10:16.563Z,41.30
2023-04-04T13:13:01.231Z,41.70
2023-04-04T13:15:50.694Z,42.30
2023-04-04T13:18:23.791Z,42.20
2023-04-04T13:20:55.014Z,42.00
2023-04-04T13:23:23.151Z,42.20
2023-04-04T13:25:52.575Z,41.90
2023-04-04T13:28:19.714Z,40.80
2023-04-04T13:30:49.230Z,41.20
2023-04-04T13:33:17.480Z,40.80
2023-04-04T13:35:46.308Z,40.80
2023-04-04T13:38:15.350Z,40.80
2023-04-04T13:40:45.350Z,40.10
2023-04-04T13:43:13.138Z,39.90
2023-04-04T13:45:40.395Z,38.70
2023-04-04T13:48:07.582Z,39.40
2023-04-04T13:50:37.446Z,37.60
2023-04-04T13:53:05.031Z,37.80
2023-04-04T13:55:32.104Z,38.10
2023-04-04T13:57:59.341Z,38.30
2023-04-04T14:00:26.821Z,39.00
2023-04-04T14:02:55.839Z,39.20
2023-04-04T14:05:24.501Z,39.20
2023-04-04T14:07:51.601Z,39.20
2023-04-04T14:10:18.917Z,39.20
2023-04-04T14:12:46.398Z,39.30
2023-04-04T14:15:13.874Z,39.40
2023-04-04T14:17:41.371Z,39.40
2023-04-04T14:20:09.373Z,39.00
2023-04-04T14:22:37.018Z,39.50
2023-04-04T14:25:05.194Z,39.80
2023-04-04T14:27:34.646Z,39.80
2023-04-04T14:30:01.681Z,39.00
2023-04-04T14:32:28.784Z,39.30
2023-04-04T14:34:55.866Z,39.80
2023-04-04T14:37:23.048Z,39.70
2023-04-04T14:39:50.326Z,38.70
2023-04-04T14:42:17.598Z,38.90
2023-04-04T14:44:44.725Z,39.00
2023-04-04T14:47:11.882Z,38.70
2023-04-04T14:49:38.954Z,38.90
2023-04-04T14:52:06.132Z,38.10
2023-04-04T14:54:33.216Z,37.50
2023-04-04T14:57:00.899Z,37.50
2023-04-04T14:59:28.215Z,36.20
2023-04-04T15:01:55.383Z,35.00
2023-04-04T15:04:22.542Z,35.60
2023-04-04T15:06:49.859Z,36.00
2023-04-04T15:09:17.630Z,36.30
2023-04-04T15:11:44.794Z,35.90
2023-04-04T15:14:11.801Z,35.30
2023-04-04T15:16:41.628Z,34.90
2023-04-04T15:19:10.679Z,34.90
2023-04-04T15:21:37.968Z,34.10
2023-04-04T15:24:05.451Z,34.00
2023-04-04T15:26:32.990Z,33.70
2023-04-04T15:29:00.153Z,34.00
2023-04-04T15:31:29.610Z,33.90
2023-04-04T15:33:59.418Z,33.70
2023-04-04T15:36:28.907Z,33.90
2023-04-04T15:38:56.581Z,33.80
2023-04-04T15:41:23.832Z,33.60
2023-04-04T15:43:52.005Z,33.90
2023-04-04T15:46:19.087Z,33.90
2023-04-04T15:48:48.175Z,33.30
2023-04-04T15:51:15.356Z,33.90
2023-04-04T15:53:42.404Z,33.40
2023-04-04T15:56:09.611Z,33.50
2023-04-04T15:58:36.784Z,33.40
2023-04-04T16:01:03.953Z,32.50
2023-04-04T16:03:31.130Z,32.50
2023-04-04T16:05:58.257Z,32.60
2023-04-04T16:08:25.291Z,32.50
2023-04-04T16:10:52.452Z,31.70
2023-04-04T16:13:19.777Z,32.60
2023-04-04T16:15:46.869Z,32.60
2023-04-04T16:18:14.113Z,33.20
2023-04-04T16:20:42.225Z,33.50
2023-04-04T16:23:09.566Z,33.70
2023-04-04T16:25:36.822Z,33.00
2023-04-04T16:28:06.375Z,32.40
2023-04-04T16:30:34.793Z,31.90
2023-04-04T16:33:02.148Z,32.50
2023-04-04T16:35:29.515Z,32.60
2023-04-04T16:37:56.540Z,32.10
2023-04-04T16:40:23.651Z,31.60
2023-04-04T16:42:50.772Z,31.90
2023-04-04T16:45:17.867Z,32.70
2023-04-04T16:47:44.920Z,32.60
2023-04-04T16:50:12.443Z,32.60
2023-04-04T16:52:39.518Z,33.10
2023-04-04T16:55:08.508Z,32.80
2023-04-04T16:57:35.780Z,33.10
2023-04-04T17:00:05.901Z,33.20
2023-04-04T17:02:33.019Z,32.50
2023-04-04T17:05:00.213Z,32.30
2023-04-04T17:07:27.442Z,32.90
2023-04-04T17:09:54.631Z,33.00
2023-04-04T17:12:21.764Z,32.50
2023-04-04T17:14:50.553Z,32.70
2023-04-04T17:17:17.653Z,32.70
2023-04-04T17:19:44.927Z,33.00
2023-04-04T17:22:12.365Z,32.80
2023-04-04T17:24:44.221Z,32.90
2023-04-04T17:27:11.365Z,32.80
2023-04-04T17:29:38.394Z,32.80
2023-04-04T17:32:05.780Z,32.50
2023-04-04T17:34:32.813Z,32.60
2023-04-04T17:37:00.022Z,32.60
2023-04-04T17:39:27.405Z,32.90
2023-04-04T17:41:54.741Z,32.80
2023-04-04T17:44:22.307Z,32.70
2023-04-04T17:46:49.490Z,32.70
2023-04-04T17:49:20.213Z,32.70
2023-04-04T17:51:48.218Z,32.60
2023-04-04T17:54:15.372Z,32.30
2023-04-04T17:56:46.136Z,32.10
2023-04-04T17:59:15.706Z,32.30
2023-04-04T18:01:42.932Z,32.10
2023-04-04T18:04:10.432Z,32.10
2023-04-04T18:06:39.533Z,32.30
2023-04-04T18:09:08.850Z,32.10
2023-04-04T18:11:37.097Z,32.40
2023-04-04T18:14:04.593Z,32.70
2023-04-04T18:16:39.128Z,32.80
2023-04-04T18:19:10.620Z,32.70
2023-04-04T18:21:38.671Z,32.60
2023-04-04T18:24:08.066Z,32.80
2023-04-04T18:26:38.194Z,32.30
2023-04-04T18:29:05.200Z,32.30
2023-04-04T18:31:33.181Z,32.10
2023-04-04T18:34:01.053Z,31.80
2023-04-04T18:36:28.159Z,31.90
2023-04-04T18:38:55.289Z,32.10
2023-04-04T18:41:22.408Z,31.60
2023-04-04T18:43:49.503Z,31.80
2023-04-04T18:46:16.637Z,31.40
2023-04-04T18:48:43.800Z,31.30
2023-04-04T18:51:10.906Z,31.00
2023-04-04T18:53:37.908Z,31.40
2023-04-04T18:56:05.064Z,31.40
2023-04-04T18:58:32.858Z,31.30
2023-04-04T19:01:02.855Z,31.30
2023-04-04T19:03:41.436Z,31.70
2023-04-04T19:06:13.345Z,31.70
2023-04-04T19:08:41.914Z,31.50
2023-04-04T19:11:09.946Z,31.40
2023-04-04T19:13:36.980Z,31.60
2023-04-04T19:16:09.143Z,30.70
2023-04-04T19:18:36.870Z,30.50
2023-04-04T19:21:05.676Z,30.60
2023-04-04T19:23:32.856Z,30.60
2023-04-04T19:26:02.507Z,30.30
2023-04-04T19:28:30.179Z,30.70
2023-04-04T19:30:57.191Z,31.10
2023-04-04T19:33:26.864Z,31.20
2023-04-04T19:36:00.365Z,31.40
2023-04-04T19:38:33.811Z,31.40
2023-04-04T19:41:01.797Z,31.70
2023-04-04T19:43:30.286Z,31.40
2023-04-04T19:46:00.726Z,31.40
2023-04-04T19:48:49.237Z,31.40
2023-04-04T19:51:22.539Z,31.70
2023-04-04T19:53:57.481Z,31.90
2023-04-04T19:56:27.861Z,32.10
2023-04-04T19:59:00.152Z,31.30
2023-04-04T20:01:31.937Z,31.10
2023-04-04T20:04:08.010Z,31.20
2023-04-04T20:06:37.027Z,31.10
2023-04-04T20:09:34.760Z,30.90
2023-04-04T20:12:02.020Z,30.90
2023-04-04T20:14:29.422Z,31.30
2023-04-04T20:16:56.455Z,31.10
2023-04-04T20:19:25.436Z,31.40
2023-04-04T20:21:52.773Z,31.60
2023-04-04T20:24:21.197Z,31.60
2023-04-04T20:27:00.493Z,31.50
2023-04-04T20:29:35.711Z,32.00
2023-04-04T20:32:08.570Z,32.20
2023-04-04T20:34:42.480Z,32.60
2023-04-04T20:37:25.014Z,32.80
2023-04-04T20:39:56.112Z,32.90
2023-04-04T20:42:26.203Z,33.10
2023-04-04T20:44:54.777Z,33.00
2023-04-04T20:47:44.391Z,33.00
2023-04-04T20:50:17.483Z,33.10
2023-04-04T20:52:48.940Z,33.20
2023-04-04T20:55:18.640Z,33.20
2023-04-04T20:57:50.540Z,33.30
2023-04-04T21:00:29.519Z,33.40
2023-04-04T21:02:58.746Z,33.40
2023-04-04T21:05:38.787Z,33.30
2023-04-04T21:08:24.314Z,33.10
2023-04-04T21:10:56.619Z,33.10
2023-04-04T21:13:44.828Z,33.30
2023-04-04T21:16:19.228Z,33.40
2023-04-04T21:18:46.436Z,33.40
2023-04-04T21:21:17.714Z,33.20
2023-04-04T21:23:56.129Z,33.40
2023-04-04T21:26:35.290Z,33.30
2023-04-04T21:29:06.988Z,33.20
2023-04-04T21:31:39.922Z,33.30
2023-04-04T21:34:15.828Z,33.40
2023-04-04T21:36:44.370Z,33.30
2023-04-04T21:39:20.941Z,33.10
2023-04-04T21:41:51.917Z,33.10
2023-04-04T21:44:19.238Z,33.10
2023-04-04T21:46:46.373Z,33.10
2023-04-04T21:49:13.527Z,33.10
2023-04-04T21:51:41.119Z,33.00
2023-04-04T21:54:08.584Z,33.00
2023-04-04T21:56:37.209Z,32.80
2023-04-04T21:59:06.668Z,32.80
2023-04-04T22:01:34.002Z,32.80
2023-04-04T22:04:01.442Z,32.60
2023-04-04T22:06:29.047Z,32.60
2023-04-04T22:08:57.773Z,32.70
2023-04-04T22:11:27.302Z,32.50
2023-04-04T22:14:04.473Z,32.30
2023-04-04T22:16:36.758Z,32.00
2023-04-04T22:19:04.905Z,31.70
2023-04-04T22:21:37.161Z,31.50
2023-04-04T22:24:06.398Z,31.40
2023-04-04T22:26:34.104Z,31.40
2023-04-04T22:29:03.530Z,31.40
2023-04-04T22:31:31.220Z,31.40
2023-04-04T22:33:58.464Z,31.10
2023-04-04T22:36:25.617Z,31.20
2023-04-04T22:38:57.775Z,31.60
2023-04-04T22:41:29.882Z,31.50
2023-04-04T22:43:58.255Z,32.00
2023-04-04T22:46:29.387Z,31.60
2023-04-04T22:49:07.271Z,31.90
2023-04-04T22:51:44.214Z,32.00
2023-04-04T22:54:14.557Z,31.70
2023-04-04T22:56:42.062Z,32.00
2023-04-04T22:59:09.383Z,31.80
2023-04-04T23:01:37.039Z,31.60
2023-04-04T23:04:04.224Z,32.00
2023-04-04T23:06:31.680Z,31.70
2023-04-04T23:08:59.159Z,31.60
2023-04-04T23:11:27.551Z,31.60
2023-04-04T23:13:57.546Z,31.60
2023-04-04T23:16:26.712Z,31.90
2023-04-04T23:18:54.014Z,32.20
2023-04-04T23:21:22.507Z,32.30
2023-04-04T23:23:49.743Z,32.40
2023-04-04T23:26:16.879Z,32.60
2023-04-04T23:28:43.816Z,32.40
2023-04-04T23:31:10.921Z,32.40
2023-04-04T23:33:38.283Z,32.50
2023-04-04T23:36:05.523Z,32.60
2023-04-04T23:38:32.574Z,32.70
2023-04-04T23:40:59.593Z,32.80
2023-04-04T23:43:26.631Z,32.80
2023-04-04T23:45:53.703Z,32.50
2023-04-04T23:48:21.770Z,32.40
2023-04-04T23:50:50.189Z,32.40
2023-04-04T23:53:17.368Z,32.60
2023-04-04T23:55:44.370Z,32.60
2023-04-04T23:58:11.436Z,32.30
